Time;durP1;ratioP1;P1;durP2;ratioP2;P2;SDS_P1;SDS_P2;PMS_P1;PMS_P2;Temp;Humidity;BMP_temperature;BMP_pressure;BME280_temperature;BME280_humidity;BME280_pressure;Samples;Min_cycle;Max_cycle;Signal;HPM_P1;HPM_P2
2022/12/02 00:00:49;;;;;;;44.17;21.67;;;5.00;99.90;;;;;;5027214;28;20555;-84
2022/12/02 00:03:19;;;;;;;42.70;21.83;;;5.10;99.90;;;;;;5043159;23;20496;-84
2022/12/02 00:05:49;;;;;;;50.80;23.30;;;5.10;99.90;;;;;;5036538;28;20458;-84
2022/12/02 00:08:19;;;;;;;41.70;22.33;;;5.10;99.90;;;;;;5038099;28;20442;-84
2022/12/02 00:10:47;;;;;;;43.73;21.13;;;5.10;99.90;;;;;;5039061;28;20539;-82
2022/12/02 00:13:21;;;;;;;41.57;22.00;;;5.00;99.90;;;;;;5037627;28;20471;-84
2022/12/02 00:15:51;;;;;;;42.10;19.93;;;5.00;99.90;;;;;;5038340;28;20444;-84
2022/12/02 00:18:18;;;;;;;39.33;20.07;;;5.00;99.90;;;;;;5037882;28;20482;-84
2022/12/02 00:20:45;;;;;;;39.70;18.73;;;4.90;99.90;;;;;;5038078;28;20539;-84
2022/12/02 00:23:12;;;;;;;37.63;18.90;;;4.80;99.90;;;;;;5037820;28;20473;-83
2022/12/02 00:25:39;;;;;;;31.63;16.67;;;4.90;99.90;;;;;;5048475;28;20512;-83
2022/12/02 00:28:06;;;;;;;25.17;14.70;;;4.80;99.90;;;;;;5046300;28;20473;-83
2022/12/02 00:30:34;;;;;;;26.90;16.07;;;4.80;99.90;;;;;;5045150;28;20463;-84
2022/12/02 00:33:01;;;;;;;35.70;18.57;;;4.80;99.90;;;;;;5046301;28;20521;-83
2022/12/02 00:35:28;;;;;;;36.07;19.30;;;4.90;99.90;;;;;;5051557;28;20460;-84
2022/12/02 00:37:55;;;;;;;49.57;22.50;;;4.80;99.90;;;;;;5040588;28;20959;-84
2022/12/02 00:40:21;;;;;;;50.93;22.60;;;4.70;99.90;;;;;;5040219;28;20454;-83
2022/12/02 00:42:48;;;;;;;49.40;24.73;;;4.70;99.90;;;;;;5040294;28;20556;-84
2022/12/02 00:48:01;;;;;;;52.83;26.90;;;4.60;99.90;;;;;;5074506;28;20419;-82
2022/12/02 00:50:28;;;;;;;60.13;27.10;;;4.60;99.90;;;;;;5060494;28;20501;-81
2022/12/02 00:52:56;;;;;;;57.27;24.10;;;4.50;99.90;;;;;;5051169;28;20492;-82
2022/12/02 00:55:22;;;;;;;50.50;24.90;;;4.50;99.90;;;;;;5048972;28;20452;-83
2022/12/02 00:57:49;;;;;;;54.70;25.10;;;4.40;99.90;;;;;;5051990;28;20522;-82
2022/12/02 01:00:17;;;;;;;54.83;23.00;;;4.30;99.90;;;;;;5048577;28;20514;-83
2022/12/02 01:02:44;;;;;;;47.87;23.10;;;4.40;99.90;;;;;;5058632;28;20507;-83
2022/12/02 01:05:12;;;;;;;56.10;26.00;;;4.40;99.90;;;;;;5054191;28;20449;-83
2022/12/02 01:07:38;;;;;;;45.73;23.00;;;4.40;99.90;;;;;;5058221;28;20454;-83
2022/12/02 01:10:06;;;;;;;44.53;23.77;;;4.40;99.90;;;;;;5049589;28;20449;-83
2022/12/02 01:12:33;;;;;;;47.70;22.70;;;4.50;99.90;;;;;;5038104;28;20972;-83
2022/12/02 01:15:00;;;;;;;53.60;21.97;;;4.50;99.90;;;;;;5037687;28;20454;-81
2022/12/02 01:17:27;;;;;;;53.77;23.40;;;4.40;99.90;;;;;;5023410;28;21069;-83
2022/12/02 01:19:54;;;;;;;37.97;20.13;;;4.60;99.90;;;;;;5017887;28;20457;-83
2022/12/02 01:22:22;;;;;;;45.13;20.53;;;4.50;99.90;;;;;;5018675;28;20863;-83
2022/12/02 01:24:49;;;;;;;42.03;20.10;;;4.50;99.90;;;;;;5029550;28;20472;-81
2022/12/02 01:27:15;;;;;;;38.80;21.23;;;4.50;99.90;;;;;;5037671;28;20455;-83
2022/12/02 01:29:42;;;;;;;44.93;22.53;;;4.50;99.90;;;;;;5041406;28;20466;-83
2022/12/02 01:32:09;;;;;;;43.87;22.17;;;4.50;99.90;;;;;;5038712;28;20479;-82
2022/12/02 01:34:36;;;;;;;43.17;20.80;;;4.40;99.90;;;;;;5043327;28;20878;-83
2022/12/02 01:37:03;;;;;;;40.07;21.57;;;4.40;99.90;;;;;;5038033;28;20453;-84
2022/12/02 01:39:31;;;;;;;44.07;20.97;;;4.40;99.90;;;;;;5048034;28;20505;-83
2022/12/02 01:41:58;;;;;;;50.13;24.77;;;4.50;99.90;;;;;;5058935;28;20511;-83
2022/12/02 01:44:25;;;;;;;51.53;22.67;;;4.40;99.90;;;;;;5048002;28;20521;-83
2022/12/02 01:46:52;;;;;;;58.00;23.47;;;4.20;99.90;;;;;;5038126;28;21038;-84
2022/12/02 01:49:19;;;;;;;47.00;22.40;;;4.30;99.90;;;;;;5038561;28;20450;-83
2022/12/02 01:51:46;;;;;;;46.90;20.63;;;4.40;99.90;;;;;;5036799;28;20492;-83
2022/12/02 01:54:13;;;;;;;46.87;22.70;;;4.40;99.90;;;;;;5040664;28;20461;-84
2022/12/02 01:56:42;;;;;;;49.73;22.40;;;4.50;99.90;;;;;;5048048;28;20517;-83
2022/12/02 01:59:11;;;;;;;47.07;22.30;;;4.60;99.90;;;;;;5057958;28;20487;-84
2022/12/02 02:01:38;;;;;;;54.00;25.20;;;4.50;99.90;;;;;;5056889;28;20479;-84
2022/12/02 02:04:06;;;;;;;50.23;25.20;;;4.20;99.90;;;;;;5037772;28;20570;-83
2022/12/02 02:06:38;;;;;;;43.80;22.17;;;4.10;99.90;;;;;;5038184;28;20967;-84
2022/12/02 02:09:06;;;;;;;56.50;23.47;;;4.30;99.90;;;;;;5057394;28;20524;-83
2022/12/02 02:11:33;;;;;;;49.17;23.00;;;4.30;99.90;;;;;;5054638;28;20456;-83
2022/12/02 02:14:03;;;;;;;45.67;20.70;;;4.30;99.90;;;;;;5053159;28;20478;-82
2022/12/02 02:16:30;;;;;;;50.17;24.63;;;4.40;99.90;;;;;;5035830;28;20462;-83
2022/12/02 02:18:58;;;;;;;51.30;24.70;;;4.40;99.90;;;;;;5035492;28;20486;-84
2022/12/02 02:21:33;;;;;;;50.93;21.00;;;4.50;99.90;;;;;;5016128;28;20465;-82
2022/12/02 02:24:01;;;;;;;53.13;23.70;;;4.50;99.90;;;;;;5015833;28;20539;-82
2022/12/02 02:26:28;;;;;;;49.93;23.07;;;4.50;99.90;;;;;;5034880;28;20453;-84
2022/12/02 02:28:55;;;;;;;47.83;24.13;;;4.60;99.90;;;;;;5034581;28;20445;-83
2022/12/02 02:31:22;;;;;;;52.27;22.10;;;4.60;99.90;;;;;;5044527;28;20448;-84
2022/12/02 02:33:50;;;;;;;55.73;27.10;;;4.60;99.90;;;;;;5055003;28;20474;-83
2022/12/02 02:36:17;;;;;;;47.87;24.10;;;4.50;99.90;;;;;;5043167;28;20448;-84
2022/12/02 02:38:45;;;;;;;44.37;22.67;;;4.50;99.90;;;;;;5054067;28;20479;-83
2022/12/02 02:41:13;;;;;;;47.57;22.13;;;4.50;99.90;;;;;;5046187;28;20453;-82
2022/12/02 02:43:40;;;;;;;47.60;24.27;;;4.60;99.90;;;;;;5034552;28;20480;-83
2022/12/02 02:46:08;;;;;;;56.50;24.70;;;4.60;99.90;;;;;;5034632;28;20454;-80
2022/12/02 02:48:35;;;;;;;53.53;25.43;;;4.70;99.90;;;;;;5034894;28;20883;-83
2022/12/02 02:51:02;;;;;;;49.80;23.90;;;4.70;99.90;;;;;;5047143;28;20459;-81
2022/12/02 02:53:30;;;;;;;58.97;24.70;;;4.80;99.90;;;;;;5054752;28;20558;-83
2022/12/02 02:55:57;;;;;;;55.10;23.60;;;4.80;99.90;;;;;;5038981;28;20459;-83
2022/12/02 02:58:27;;;;;;;56.20;25.67;;;4.80;99.90;;;;;;5036279;28;21077;-83
2022/12/02 03:00:57;;;;;;;48.53;24.37;;;4.60;99.90;;;;;;5047513;28;20458;-83
2022/12/02 03:03:26;;;;;;;52.57;24.60;;;4.50;99.90;;;;;;5059095;28;20498;-82
2022/12/02 03:05:55;;;;;;;55.57;25.73;;;4.60;99.90;;;;;;5048759;28;20419;-82
2022/12/02 03:08:24;;;;;;;47.33;21.40;;;4.60;99.90;;;;;;5039023;28;20509;-82
2022/12/02 03:10:52;;;;;;;53.63;25.20;;;4.60;99.90;;;;;;5048299;28;20472;-82
2022/12/02 03:13:19;;;;;;;57.30;25.63;;;4.50;99.90;;;;;;5038152;28;20477;-82
2022/12/02 03:15:48;;;;;;;60.40;25.53;;;4.50;99.90;;;;;;5039649;28;20456;-83
2022/12/02 03:18:15;;;;;;;47.60;22.00;;;4.50;99.90;;;;;;5038916;28;20480;-83
2022/12/02 03:20:42;;;;;;;47.90;23.67;;;4.40;99.90;;;;;;5051941;28;20534;-83
2022/12/02 03:23:09;;;;;;;53.07;23.20;;;4.50;99.90;;;;;;5039607;28;20472;-83
2022/12/02 03:25:37;;;;;;;52.50;24.90;;;4.50;99.90;;;;;;5050313;28;20448;-82
2022/12/02 03:28:05;;;;;;;55.50;24.73;;;4.40;99.90;;;;;;5057865;28;20455;-83
2022/12/02 03:30:32;;;;;;;49.97;22.90;;;4.40;99.90;;;;;;5046344;28;20448;-83
2022/12/02 03:33:00;;;;;;;49.87;23.50;;;4.50;99.90;;;;;;5051944;28;20474;-83
2022/12/02 03:35:27;;;;;;;60.20;25.23;;;4.50;99.90;;;;;;5048073;28;20449;-83
2022/12/02 03:37:55;;;;;;;59.93;23.80;;;4.40;99.90;;;;;;5038036;28;20444;-83
2022/12/02 03:40:22;;;;;;;59.50;28.17;;;4.30;99.90;;;;;;5049797;28;20458;-84
2022/12/02 03:42:49;;;;;;;46.00;21.93;;;4.40;99.90;;;;;;5045528;28;20465;-83
2022/12/02 03:45:17;;;;;;;68.80;29.03;;;4.40;99.90;;;;;;5049150;28;20459;-83
2022/12/02 03:47:44;;;;;;;48.10;22.97;;;4.40;99.90;;;;;;5061667;28;20448;-83
2022/12/02 03:50:13;;;;;;;54.00;23.37;;;4.50;99.90;;;;;;5047582;28;20455;-82
2022/12/02 03:52:40;;;;;;;54.57;24.47;;;4.50;99.90;;;;;;5041478;28;20553;-83
2022/12/02 03:55:09;;;;;;;60.60;27.87;;;4.50;99.90;;;;;;5042136;28;20563;-83
2022/12/02 03:57:35;;;;;;;53.40;23.90;;;4.40;99.90;;;;;;5041832;28;20491;-82
2022/12/02 04:00:04;;;;;;;53.17;23.10;;;4.40;99.90;;;;;;5051490;28;20494;-82
2022/12/02 04:02:31;;;;;;;46.73;23.90;;;4.50;99.90;;;;;;5047948;28;20484;-83
2022/12/02 04:04:57;;;;;;;48.77;25.23;;;4.50;99.90;;;;;;5035903;28;20934;-83
2022/12/02 04:07:26;;;;;;;51.40;22.80;;;4.50;99.90;;;;;;5040445;28;20544;-83
2022/12/02 04:09:52;;;;;;;62.93;25.60;;;4.50;99.90;;;;;;5046598;28;20458;-83
2022/12/02 04:12:19;;;;;;;61.60;26.00;;;4.40;99.90;;;;;;5040887;28;20491;-83
2022/12/02 04:14:46;;;;;;;58.20;24.90;;;4.40;99.90;;;;;;5042667;28;20454;-83
2022/12/02 04:17:13;;;;;;;60.43;26.10;;;4.40;99.90;;;;;;5039056;28;20455;-83
2022/12/02 04:19:40;;;;;;;49.00;25.87;;;4.40;99.90;;;;;;5041203;28;20503;-83
2022/12/02 04:22:07;;;;;;;44.07;23.77;;;4.40;99.90;;;;;;5039288;28;20477;-83
2022/12/02 04:24:36;;;;;;;57.70;24.73;;;4.40;99.90;;;;;;5049736;28;20956;-83
2022/12/02 04:27:03;;;;;;;53.83;22.77;;;4.40;99.90;;;;;;5039518;28;20453;-82
2022/12/02 04:29:29;;;;;;;58.87;28.60;;;4.50;99.90;;;;;;5038131;28;20557;-83
2022/12/02 04:31:56;;;;;;;56.60;26.17;;;4.50;99.90;;;;;;5036280;28;20454;-83
2022/12/02 04:34:23;;;;;;;51.70;23.13;;;4.40;99.90;;;;;;5038906;28;20516;-83
2022/12/02 04:36:50;;;;;;;53.43;23.70;;;4.50;99.90;;;;;;5049524;28;20784;-82
2022/12/02 04:39:16;;;;;;;49.63;23.37;;;4.60;99.90;;;;;;5054575;28;20564;-81
2022/12/02 04:41:45;;;;;;;53.27;21.80;;;4.60;99.90;;;;;;5054011;28;20956;-81
2022/12/02 04:44:11;;;;;;;63.17;24.67;;;4.50;99.90;;;;;;5041915;28;20428;-81
2022/12/02 04:46:38;;;;;;;65.80;24.83;;;4.40;99.90;;;;;;5048674;28;20474;-82
2022/12/02 04:49:05;;;;;;;50.03;24.07;;;4.50;99.90;;;;;;5034506;28;20804;-83
2022/12/02 04:51:32;;;;;;;59.77;25.17;;;4.50;99.90;;;;;;5043135;28;20457;-83
2022/12/02 04:53:59;;;;;;;70.33;26.37;;;4.50;99.90;;;;;;5036167;28;20555;-83
2022/12/02 04:56:26;;;;;;;62.63;25.50;;;4.50;99.90;;;;;;5038007;28;20465;-82
2022/12/02 04:58:54;;;;;;;59.47;26.17;;;4.30;99.90;;;;;;5036434;28;20500;-82
2022/12/02 05:01:21;;;;;;;60.57;25.30;;;4.20;99.90;;;;;;5046030;28;20476;-83
2022/12/02 05:03:47;;;;;;;67.67;25.10;;;4.00;99.90;;;;;;5035936;28;20472;-79
2022/12/02 05:06:14;;;;;;;66.77;26.13;;;4.00;99.90;;;;;;5035611;28;20498;-80
2022/12/02 05:08:41;;;;;;;61.00;25.63;;;3.90;99.90;;;;;;5034589;28;20431;-81
2022/12/02 05:11:08;;;;;;;64.90;25.50;;;4.00;99.90;;;;;;5043497;28;20536;-80
2022/12/02 05:13:35;;;;;;;63.00;23.03;;;4.10;99.90;;;;;;5034291;28;20472;-81
2022/12/02 05:16:03;;;;;;;53.50;22.00;;;4.10;99.90;;;;;;5038629;28;20530;-81
2022/12/02 05:18:30;;;;;;;58.23;23.60;;;4.20;99.90;;;;;;5034665;28;20444;-80
2022/12/02 05:20:57;;;;;;;54.70;23.73;;;4.10;99.90;;;;;;5034800;28;20514;-81
2022/12/02 05:23:23;;;;;;;69.80;26.13;;;4.20;99.90;;;;;;5034826;28;20479;-80
2022/12/02 05:25:50;;;;;;;50.97;22.70;;;4.20;99.90;;;;;;5034009;28;20456;-81
2022/12/02 05:28:17;;;;;;;54.13;23.90;;;4.10;99.90;;;;;;5034543;28;20441;-80
2022/12/02 05:30:44;;;;;;;54.63;24.63;;;4.00;99.90;;;;;;5034765;28;20467;-80
2022/12/02 05:33:12;;;;;;;68.63;26.97;;;4.00;99.90;;;;;;5029120;28;20852;-80
2022/12/02 05:35:39;;;;;;;62.93;24.03;;;4.10;99.90;;;;;;5034876;28;20554;-81
2022/12/02 05:38:05;;;;;;;64.13;22.53;;;4.10;99.90;;;;;;5033934;28;20500;-81
2022/12/02 05:40:32;;;;;;;60.93;24.33;;;4.10;99.90;;;;;;5035183;28;20473;-81
2022/12/02 05:43:13;;;;;;;60.87;23.70;;;4.10;99.90;;;;;;5033947;28;20479;-79
2022/12/02 05:45:40;;;;;;;65.77;24.67;;;4.10;99.90;;;;;;5035192;28;20837;-81
2022/12/02 05:48:13;;;;;;;63.97;25.70;;;4.20;99.90;;;;;;5034332;28;20450;-82
2022/12/02 05:50:40;;;;;;;72.67;26.20;;;4.20;99.90;;;;;;5045052;28;20445;-82
2022/12/02 05:53:10;;;;;;;80.23;29.27;;;4.10;99.90;;;;;;5039502;28;20953;-80
2022/12/02 05:55:36;;;;;;;92.03;35.23;;;4.00;99.90;;;;;;5043874;28;20460;-81
2022/12/02 05:58:07;;;;;;;103.10;34.43;;;3.80;99.90;;;;;;5046743;28;20424;-82
2022/12/02 06:00:34;;;;;;;88.20;31.60;;;3.70;99.90;;;;;;5034940;28;20571;-82
2022/12/02 06:03:05;;;;;;;85.93;32.00;;;3.80;99.90;;;;;;5041552;28;20562;-80
2022/12/02 06:05:37;;;;;;;102.93;32.50;;;3.90;99.90;;;;;;5025249;22;21362;-80
2022/12/02 06:08:14;;;;;;;77.87;28.60;;;3.90;99.90;;;;;;4999658;28;20460;-78
2022/12/02 06:10:43;;;;;;;73.13;29.40;;;3.90;99.90;;;;;;4997140;28;20425;-79
2022/12/02 06:13:16;;;;;;;79.17;28.70;;;3.90;99.90;;;;;;4988566;28;20454;-80
2022/12/02 06:15:43;;;;;;;85.80;31.63;;;4.00;99.90;;;;;;4994776;28;20463;-78
2022/12/02 06:18:14;;;;;;;96.70;31.20;;;4.00;99.90;;;;;;4994980;28;20457;-79
2022/12/02 06:20:44;;;;;;;84.37;31.43;;;4.00;99.90;;;;;;4997318;28;20482;-79
2022/12/02 06:23:14;;;;;;;73.13;26.00;;;4.00;99.90;;;;;;4991354;28;20964;-78
2022/12/02 06:25:41;;;;;;;70.90;28.13;;;4.10;99.90;;;;;;4992358;28;20840;-78
2022/12/02 06:28:22;;;;;;;85.30;31.77;;;4.00;99.90;;;;;;4993932;28;21246;-80
2022/12/02 06:30:50;;;;;;;73.77;28.10;;;3.90;99.90;;;;;;4996001;28;21233;-78
2022/12/02 06:33:25;;;;;;;79.00;31.10;;;4.00;99.90;;;;;;4994665;28;20455;-79
2022/12/02 06:35:55;;;;;;;94.37;32.90;;;4.00;99.90;;;;;;4994978;28;20466;-77
2022/12/02 06:38:28;;;;;;;89.67;29.60;;;4.00;99.90;;;;;;4996626;28;20824;-78
2022/12/02 06:40:55;;;;;;;94.77;32.53;;;3.90;99.90;;;;;;4995993;28;20486;-80
2022/12/02 06:43:26;;;;;;;74.73;27.57;;;3.80;99.90;;;;;;5001414;28;20447;-79
2022/12/02 06:45:53;;;;;;;83.20;31.03;;;3.90;99.90;;;;;;4993076;28;20462;-81
2022/12/02 06:48:27;;;;;;;73.83;27.37;;;4.00;99.90;;;;;;4991276;28;20462;-80
2022/12/02 06:50:57;;;;;;;69.37;30.37;;;4.00;99.90;;;;;;4996707;28;20467;-80
2022/12/02 06:53:34;;;;;;;79.37;31.00;;;4.00;99.90;;;;;;4991661;28;20964;-80
2022/12/02 06:56:05;;;;;;;66.63;27.87;;;4.00;99.90;;;;;;4993044;28;20448;-79
2022/12/02 06:58:39;;;;;;;67.47;29.00;;;4.00;99.90;;;;;;4991149;28;20453;-79
2022/12/02 07:01:37;;;;;;;84.83;32.50;;;4.10;99.90;;;;;;4992129;28;20558;-80
2022/12/02 07:04:40;;;;;;;67.87;28.67;;;4.20;99.90;;;;;;4990163;28;21090;-80
2022/12/02 07:07:19;;;;;;;72.93;31.23;;;4.20;99.90;;;;;;4990696;28;20508;-79
2022/12/02 07:09:48;;;;;;;63.60;27.80;;;4.10;99.90;;;;;;4991502;28;20443;-79
2022/12/02 07:12:18;;;;;;;63.47;28.13;;;4.20;99.90;;;;;;4991512;28;20534;-79
2022/12/02 07:14:48;;;;;;;62.03;25.73;;;4.30;99.90;;;;;;4992248;28;20453;-79
2022/12/02 07:17:21;;;;;;;70.50;26.50;;;4.30;99.90;;;;;;4991158;28;20559;-80
2022/12/02 07:19:50;;;;;;;62.53;28.03;;;4.40;99.90;;;;;;4992789;28;21200;-81
2022/12/02 07:22:20;;;;;;;67.60;27.07;;;4.40;99.90;;;;;;4989992;28;20454;-80
2022/12/02 07:24:54;;;;;;;63.07;24.93;;;4.20;99.90;;;;;;4994377;28;20466;-80
2022/12/02 07:27:24;;;;;;;64.93;26.13;;;4.10;99.90;;;;;;4992266;28;20450;-81
2022/12/02 07:29:52;;;;;;;61.90;28.43;;;4.20;99.90;;;;;;4990893;28;20450;-80
2022/12/02 07:32:19;;;;;;;58.87;26.53;;;4.20;99.90;;;;;;4993891;28;20528;-79
2022/12/02 07:34:46;;;;;;;55.87;27.50;;;4.20;99.90;;;;;;4990452;28;20479;-80
2022/12/02 07:37:13;;;;;;;69.43;26.90;;;4.10;99.90;;;;;;4993132;28;20910;-79
2022/12/02 07:39:41;;;;;;;51.77;23.83;;;4.10;99.90;;;;;;4992957;28;20490;-79
2022/12/02 07:42:08;;;;;;;70.33;27.50;;;4.20;99.90;;;;;;4992928;28;20454;-80
2022/12/02 07:44:35;;;;;;;54.83;24.00;;;4.20;99.90;;;;;;4992635;28;20477;-79
2022/12/02 07:47:02;;;;;;;52.97;25.17;;;4.30;99.90;;;;;;4993063;28;20975;-80
2022/12/02 07:49:29;;;;;;;55.30;25.47;;;4.20;99.90;;;;;;4994202;28;20435;-79
2022/12/02 07:51:56;;;;;;;59.17;25.67;;;4.10;99.90;;;;;;4993331;28;20436;-80
2022/12/02 07:54:23;;;;;;;51.23;22.90;;;4.20;99.90;;;;;;4995297;28;20478;-80
2022/12/02 07:56:51;;;;;;;42.87;22.30;;;4.20;99.90;;;;;;4993153;28;20457;-79
2022/12/02 07:59:18;;;;;;;45.03;21.97;;;4.30;99.90;;;;;;4996986;28;20450;-80
2022/12/02 08:01:45;;;;;;;57.70;23.93;;;4.20;99.90;;;;;;5010169;28;20509;-78
2022/12/02 08:04:12;;;;;;;60.27;26.33;;;4.20;99.90;;;;;;5001383;28;21009;-80
2022/12/02 08:06:38;;;;;;;46.67;23.30;;;4.20;99.90;;;;;;4993110;28;20553;-80
2022/12/02 08:09:05;;;;;;;51.83;23.23;;;4.30;99.90;;;;;;4995727;28;20874;-79
2022/12/02 08:11:32;;;;;;;53.93;24.30;;;4.30;99.90;;;;;;4996977;28;20436;-80
2022/12/02 08:14:00;;;;;;;52.37;24.03;;;4.30;99.90;;;;;;4997252;28;20477;-79
2022/12/02 08:16:27;;;;;;;43.63;21.47;;;4.20;99.90;;;;;;4995413;28;20853;-79
2022/12/02 08:18:54;;;;;;;49.63;21.97;;;4.20;99.90;;;;;;4997148;28;20537;-79
2022/12/02 08:21:21;;;;;;;50.33;22.70;;;4.20;99.90;;;;;;4997603;28;21045;-80
2022/12/02 08:23:47;;;;;;;48.63;21.07;;;4.30;99.90;;;;;;4995717;28;20463;-80
2022/12/02 08:26:15;;;;;;;47.93;22.57;;;4.30;99.90;;;;;;4996982;28;20455;-81
2022/12/02 08:28:41;;;;;;;49.33;22.37;;;4.20;99.90;;;;;;4998271;28;20541;-80
2022/12/02 08:31:10;;;;;;;50.00;23.00;;;4.20;99.90;;;;;;4997590;28;20444;-81
2022/12/02 08:33:36;;;;;;;40.60;21.73;;;4.20;99.90;;;;;;5002814;28;20451;-80
2022/12/02 08:36:04;;;;;;;54.27;24.63;;;4.20;99.90;;;;;;4996883;28;20974;-79
2022/12/02 08:38:30;;;;;;;45.00;21.23;;;4.30;99.90;;;;;;4995898;28;20448;-80
2022/12/02 08:40:57;;;;;;;47.80;23.80;;;4.30;99.90;;;;;;4995607;28;20522;-79
2022/12/02 08:43:24;;;;;;;52.93;23.33;;;4.30;99.90;;;;;;4990025;28;21041;-82
2022/12/02 08:45:51;;;;;;;55.00;25.30;;;4.30;99.90;;;;;;4997721;28;20475;-79
2022/12/02 08:48:19;;;;;;;45.33;22.93;;;4.20;99.90;;;;;;4994686;28;20850;-80
2022/12/02 08:50:46;;;;;;;44.07;22.87;;;4.20;99.90;;;;;;4996959;28;20616;-82
2022/12/02 08:53:13;;;;;;;41.33;22.47;;;4.20;99.90;;;;;;4995541;28;20465;-82
2022/12/02 08:55:40;;;;;;;44.27;22.20;;;4.10;99.90;;;;;;5002893;28;20550;-80
2022/12/02 08:58:06;;;;;;;41.77;20.47;;;4.20;99.90;;;;;;5004713;28;20469;-79
2022/12/02 09:00:33;;;;;;;40.03;21.57;;;4.20;99.90;;;;;;4997428;28;20490;-82
2022/12/02 09:03:00;;;;;;;44.17;20.30;;;4.30;99.90;;;;;;5003714;28;21168;-80
2022/12/02 09:05:28;;;;;;;44.23;21.57;;;4.30;99.90;;;;;;5000101;28;20574;-81
2022/12/02 09:07:55;;;;;;;43.53;22.30;;;4.40;99.90;;;;;;4996281;28;20569;-82
2022/12/02 09:10:22;;;;;;;41.60;21.60;;;4.30;99.90;;;;;;5006597;28;20454;-80
2022/12/02 09:12:49;;;;;;;39.80;21.47;;;4.30;99.90;;;;;;4996841;28;20462;-82
2022/12/02 09:15:16;;;;;;;39.67;19.73;;;4.30;99.90;;;;;;5000611;28;21254;-80
2022/12/02 09:17:42;;;;;;;49.77;23.50;;;4.40;99.90;;;;;;4995673;28;20433;-81
2022/12/02 09:20:10;;;;;;;36.80;20.70;;;4.40;99.90;;;;;;4995418;28;20482;-81
2022/12/02 09:22:39;;;;;;;43.17;20.90;;;4.40;99.90;;;;;;4996918;28;20457;-80
2022/12/02 09:25:06;;;;;;;34.00;20.73;;;4.50;99.90;;;;;;5001698;28;20480;-81
2022/12/02 09:27:33;;;;;;;40.20;19.90;;;4.50;99.90;;;;;;5014861;28;20460;-80
2022/12/02 09:30:00;;;;;;;43.63;23.07;;;4.60;99.90;;;;;;5010010;28;20518;-81
2022/12/02 09:32:27;;;;;;;38.10;19.80;;;4.40;99.90;;;;;;5002392;28;20460;-81
2022/12/02 09:34:54;;;;;;;39.63;21.53;;;4.40;99.90;;;;;;5016626;28;20497;-82
2022/12/02 09:37:21;;;;;;;45.47;22.53;;;4.40;99.90;;;;;;5012848;28;20485;-80
2022/12/02 09:39:50;;;;;;;38.73;21.00;;;4.40;99.90;;;;;;4994332;28;20486;-81
2022/12/02 09:42:18;;;;;;;36.97;20.93;;;4.40;99.90;;;;;;5006088;28;20983;-81
2022/12/02 09:44:45;;;;;;;37.60;21.90;;;4.40;99.90;;;;;;4998128;28;20927;-81
2022/12/02 09:47:13;;;;;;;44.63;20.87;;;4.50;99.90;;;;;;4996583;28;20462;-81
2022/12/02 09:49:41;;;;;;;37.57;22.17;;;4.50;99.90;;;;;;4994525;28;20461;-83
2022/12/02 09:52:14;;;;;;;48.00;21.03;;;4.40;99.90;;;;;;4995956;28;21046;-80
2022/12/02 09:54:41;;;;;;;37.00;20.67;;;4.30;99.90;;;;;;5001463;28;21103;-81
2022/12/02 09:57:12;;;;;;;40.60;22.30;;;4.30;99.90;;;;;;4994866;28;20454;-80
2022/12/02 09:59:40;;;;;;;41.17;21.37;;;4.30;99.90;;;;;;4995530;28;20459;-81
2022/12/02 10:02:22;;;;;;;43.03;21.30;;;4.30;99.90;;;;;;4996651;28;20457;-81
2022/12/02 10:04:49;;;;;;;36.97;19.93;;;4.30;99.90;;;;;;4996429;28;20460;-81
2022/12/02 10:07:15;;;;;;;42.07;21.50;;;4.30;99.90;;;;;;4997343;28;20459;-82
2022/12/02 10:09:42;;;;;;;39.10;21.50;;;4.30;99.90;;;;;;4997814;28;20455;-81
2022/12/02 10:12:11;;;;;;;41.20;21.23;;;4.30;99.90;;;;;;4999986;28;20500;-79
2022/12/02 10:14:38;;;;;;;46.27;23.00;;;4.30;99.90;;;;;;5009065;28;20507;-81
2022/12/02 10:17:14;;;;;;;39.57;22.27;;;4.20;99.90;;;;;;4995350;28;20458;-80
2022/12/02 10:19:41;;;;;;;38.87;20.30;;;4.20;99.90;;;;;;4990066;28;20462;-79
2022/12/02 10:22:15;;;;;;;44.40;22.67;;;4.30;99.90;;;;;;4993569;28;20454;-80
2022/12/02 10:24:42;;;;;;;37.00;19.33;;;4.20;99.90;;;;;;4994525;28;20453;-81
2022/12/02 10:27:24;;;;;;;40.30;23.00;;;4.30;99.90;;;;;;4994080;28;20825;-81
2022/12/02 10:29:51;;;;;;;45.23;22.57;;;4.20;99.90;;;;;;5008757;28;20464;-80
2022/12/02 10:32:21;;;;;;;43.67;21.87;;;4.20;99.90;;;;;;5001521;28;20554;-82
2022/12/02 10:35:02;;;;;;;36.63;20.83;;;4.20;99.90;;;;;;4988727;28;20481;-80
2022/12/02 10:37:32;;;;;;;46.17;22.87;;;4.30;99.90;;;;;;4975829;28;20543;-81
2022/12/02 10:40:14;;;;;;;44.67;22.97;;;4.30;99.90;;;;;;5001257;28;20426;-81
2022/12/02 10:42:42;;;;;;;51.47;24.40;;;4.30;99.90;;;;;;4999657;28;20473;-80
2022/12/02 10:45:19;;;;;;;45.90;22.53;;;4.30;99.90;;;;;;4992653;28;20486;-79
2022/12/02 10:47:47;;;;;;;46.60;22.53;;;4.30;99.90;;;;;;4991241;28;20473;-79
2022/12/02 10:50:20;;;;;;;40.13;22.00;;;4.30;99.90;;;;;;4991657;28;20534;-79
2022/12/02 10:52:49;;;;;;;45.80;22.80;;;4.20;99.90;;;;;;4991286;28;20589;-80
2022/12/02 10:55:17;;;;;;;52.77;23.57;;;4.20;99.90;;;;;;4993272;28;20475;-79
2022/12/02 10:57:49;;;;;;;43.80;24.30;;;4.10;99.90;;;;;;4993807;28;20445;-81
2022/12/02 11:00:19;;;;;;;50.30;24.30;;;4.10;99.90;;;;;;4991663;28;20468;-79
2022/12/02 11:02:47;;;;;;;55.00;26.10;;;4.10;99.90;;;;;;4991501;28;20499;-80
2022/12/02 11:05:18;;;;;;;50.77;23.03;;;4.20;99.90;;;;;;4991843;28;20887;-80
2022/12/02 11:07:54;;;;;;;48.10;23.67;;;4.30;99.90;;;;;;4996050;28;20947;-80
2022/12/02 11:10:23;;;;;;;41.63;23.87;;;4.30;99.90;;;;;;4993402;28;20443;-80
2022/12/02 11:13:07;;;;;;;45.53;23.53;;;4.30;99.90;;;;;;4991984;28;20447;-81
2022/12/02 11:15:40;;;;;;;49.27;25.33;;;4.20;99.90;;;;;;4993883;28;20482;-81
2022/12/02 11:18:09;;;;;;;41.53;24.60;;;4.30;99.90;;;;;;4995385;28;20454;-80
2022/12/02 11:20:41;;;;;;;47.90;23.00;;;4.40;99.90;;;;;;4991461;28;20483;-80
2022/12/02 11:23:26;;;;;;;45.83;22.00;;;4.30;99.90;;;;;;4991341;28;20833;-81
2022/12/02 11:25:56;;;;;;;51.10;22.60;;;4.40;99.90;;;;;;4995754;28;20474;-81
2022/12/02 11:28:59;;;;;;;44.43;22.50;;;4.50;99.90;;;;;;4994455;28;20458;-79
2022/12/02 11:31:28;;;;;;;46.13;23.67;;;4.60;99.90;;;;;;4997650;28;20978;-79
2022/12/02 11:34:27;;;;;;;49.27;22.60;;;4.50;99.90;;;;;;4996346;28;20474;-80
2022/12/02 11:37:32;;;;;;;50.83;24.67;;;4.50;99.90;;;;;;5002046;28;20461;-79
2022/12/02 11:40:01;;;;;;;51.40;23.07;;;4.30;99.90;;;;;;4998665;28;20454;-80
2022/12/02 11:42:29;;;;;;;50.20;23.50;;;4.40;99.90;;;;;;4999276;28;20838;-81
2022/12/02 11:45:12;;;;;;;44.13;22.80;;;4.30;99.90;;;;;;4995309;28;20470;-81
2022/12/02 11:47:41;;;;;;;46.07;22.73;;;4.40;99.90;;;;;;4995547;28;21054;-80
2022/12/02 11:50:21;;;;;;;49.07;24.27;;;4.50;99.90;;;;;;4996625;28;20471;-80
2022/12/02 11:52:51;;;;;;;50.40;22.80;;;4.50;99.90;;;;;;4996754;28;20497;-81
2022/12/02 11:55:21;;;;;;;50.20;24.50;;;4.50;99.90;;;;;;5005784;28;20482;-81
2022/12/02 11:57:50;;;;;;;43.90;22.40;;;4.60;99.90;;;;;;5004843;28;20884;-81
2022/12/02 12:00:28;;;;;;;60.27;26.23;;;4.50;99.90;;;;;;4997750;28;20537;-81
2022/12/02 12:03:12;;;;;;;56.67;26.07;;;4.50;99.90;;;;;;4998175;28;20633;-80
2022/12/02 12:05:39;;;;;;;58.50;27.63;;;4.60;99.90;;;;;;4994865;28;20482;-80
2022/12/02 12:08:06;;;;;;;46.40;25.37;;;4.50;99.90;;;;;;4994135;28;20991;-79
2022/12/02 12:10:35;;;;;;;49.53;24.63;;;4.60;99.90;;;;;;4996390;28;20457;-80
2022/12/02 12:13:22;;;;;;;39.97;24.10;;;4.70;99.90;;;;;;4995009;28;20540;-79
2022/12/02 12:16:00;;;;;;;45.70;25.43;;;4.70;99.90;;;;;;5004399;28;20482;-79
2022/12/02 12:18:44;;;;;;;51.83;25.80;;;4.80;99.90;;;;;;4995715;28;20463;-79
2022/12/02 12:21:13;;;;;;;46.10;23.60;;;4.90;99.90;;;;;;4995492;28;20482;-79
2022/12/02 12:23:41;;;;;;;45.87;23.23;;;4.90;99.90;;;;;;4996026;28;20467;-80
2022/12/02 12:26:09;;;;;;;44.27;23.17;;;4.80;99.90;;;;;;5002358;28;20437;-80
2022/12/02 12:28:37;;;;;;;46.03;23.07;;;4.80;99.90;;;;;;4995157;28;20461;-79
2022/12/02 12:31:06;;;;;;;54.37;23.70;;;4.80;99.90;;;;;;5005803;28;20528;-80
2022/12/02 12:33:33;;;;;;;52.13;25.10;;;4.90;99.90;;;;;;4995787;28;20462;-80
2022/12/02 12:36:01;;;;;;;47.27;26.23;;;4.80;99.90;;;;;;4996623;28;20471;-79
2022/12/02 12:38:29;;;;;;;63.90;25.43;;;4.70;99.90;;;;;;4995350;28;20456;-79
2022/12/02 12:40:57;;;;;;;47.53;23.83;;;4.60;99.90;;;;;;5002230;28;20565;-80
2022/12/02 12:43:23;;;;;;;50.90;26.17;;;4.60;99.90;;;;;;4994911;28;20505;-80
2022/12/02 12:45:50;;;;;;;54.77;26.90;;;4.70;99.90;;;;;;4993333;28;20485;-79
2022/12/02 12:48:17;;;;;;;50.13;23.63;;;4.60;99.90;;;;;;4994201;28;20458;-80